Sea-land Lightning — WDB9986 — position and weather

sailwx.info

Track history (hours):
 
Tides and Currents Weather Stations Pressure Air Temp Water Temp Dewpoint Dewpoint Depression Visibility Wind Speed Wind Dir Waves Ship Positions

Sea-land Lightning

Owner: MAERSK LINE, LIMITED, NORFOLK, VA. More information available from US FCC via Universal Licensing System.

Last reported at 2015-Feb-23 16:18 UTC. Time now 2015-Jul-03 12:20 UTC.
Position N 01°10' E 103°47'.
Warning: this ship's position is months out of date.

Type: Ship (hazmat cat A). MMSI: 303316000.

Date/timePositionNaut miles runAvg speedWind from/ knotsBaromVisibWave heightAir tempDewpointWater temp
2015-Feb-23 16:18N 01°10' E 103°47'1012.9
2015-Feb-23 15:34N 01°14' E 103°55'1312.5
2015-Feb-23 14:32N 01°17' E 104°08'  
2015-Feb-19 10:33N 22°10' E 113°50'1212.5
2015-Feb-19 09:33N 22°22' E 113°47'6 0.5
2015-Feb-18 21:10N 22°28' E 113°45'813.2
2015-Feb-18 20:33N 22°20' E 113°48'1310.6
2015-Feb-18 19:19N 22°07' E 113°51'15 6.7
2015-Feb-18 17:06N 22°08' E 114°07'1014.9
2015-Feb-18 16:27N 22°08' E 114°18'1415.6
2015-Feb-18 15:32N 22°08' E 114°33'23417.8
2015-Feb-18 02:24N 23°46' E 118°24'5617.4
2015-Feb-17 23:12N 24°24' E 119°09'1116.9
2015-Feb-17 22:33N 24°31' E 119°18'43215.3
2015-Feb-16 18:16N 31°05' E 122°39'1115.8
2015-Feb-16 17:33N 31°06' E 122°26'1313.2
2015-Feb-16 16:33N 31°10' E 122°12'1313.2
2015-Feb-16 15:33N 31°15' E 121°57'1212.0
2015-Feb-16 14:33N 31°19' E 121°44'4 3.9
2015-Feb-16 13:30N 31°20' E 121°39'0 0.0
2015-Feb-16 12:33N 31°20' E 121°39'0 0.0
2015-Feb-16 11:30N 31°20' E 121°39'0 0.0
2015-Feb-16 10:33N 31°20' E 121°39'0 0.0
2015-Feb-16 09:33N 31°20' E 121°39'0 0.0
2015-Feb-16 08:33N 31°20' E 121°39'0 0.0
2015-Feb-16 07:33N 31°20' E 121°39'0 0.0
2015-Feb-16 06:33N 31°20' E 121°39'0 0.0
2015-Feb-16 05:33N 31°20' E 121°39'0 0.0
2015-Feb-16 04:33N 31°20' E 121°39'0 0.0
2015-Feb-16 03:29N 31°20' E 121°39'0 0.0
2015-Feb-16 02:32N 31°20' E 121°39'1 1.4
2015-Feb-16 01:33N 31°21' E 121°41'1010.5
2015-Feb-16 00:33N 31°16' E 121°52'1110.7
2015-Feb-15 23:34N 31°14' E 122°04'1010.3
2015-Feb-15 22:33N 31°09' E 122°14'10 9.7
2015-Feb-15 21:33N 31°07' E 122°25'6 5.7
2015-Feb-15 20:32N 31°07' E 122°32'47 3.9
2015-Feb-15 08:33N 31°10' E 123°27'  
Track history (hours):
 
Tides and Currents Weather Stations Pressure Air Temp Water Temp Dewpoint Dewpoint Depression Visibility Wind Speed Wind Dir Waves Ship Positions

Sea-land Lightning

Owner: MAERSK LINE, LIMITED, NORFOLK, VA. More information available from US FCC via Universal Licensing System.

Last reported at 2015-Feb-23 16:18 UTC. Time now 2015-Jul-03 12:20 UTC.
Position N 01°10' E 103°47'.
Warning: this ship's position is months out of date.

Type: Ship (hazmat cat A). MMSI: 303316000.

Date/timePositionNaut miles runAvg speedWind from/ knotsBaromVisibWave heightAir tempDewpointWater temp
2015-Feb-23 16:18N 01°10' E 103°47'1012.9
2015-Feb-23 15:34N 01°14' E 103°55'1312.5
2015-Feb-23 14:32N 01°17' E 104°08'  
2015-Feb-19 10:33N 22°10' E 113°50'1212.5
2015-Feb-19 09:33N 22°22' E 113°47'6 0.5
2015-Feb-18 21:10N 22°28' E 113°45'813.2
2015-Feb-18 20:33N 22°20' E 113°48'1310.6
2015-Feb-18 19:19N 22°07' E 113°51'15 6.7
2015-Feb-18 17:06N 22°08' E 114°07'1014.9
2015-Feb-18 16:27N 22°08' E 114°18'1415.6
2015-Feb-18 15:32N 22°08' E 114°33'23417.8
2015-Feb-18 02:24N 23°46' E 118°24'5617.4
2015-Feb-17 23:12N 24°24' E 119°09'1116.9
2015-Feb-17 22:33N 24°31' E 119°18'43215.3
2015-Feb-16 18:16N 31°05' E 122°39'1115.8
2015-Feb-16 17:33N 31°06' E 122°26'1313.2
2015-Feb-16 16:33N 31°10' E 122°12'1313.2
2015-Feb-16 15:33N 31°15' E 121°57'1212.0
2015-Feb-16 14:33N 31°19' E 121°44'4 3.9
2015-Feb-16 13:30N 31°20' E 121°39'0 0.0
2015-Feb-16 12:33N 31°20' E 121°39'0 0.0
2015-Feb-16 11:30N 31°20' E 121°39'0 0.0
2015-Feb-16 10:33N 31°20' E 121°39'0 0.0
2015-Feb-16 09:33N 31°20' E 121°39'0 0.0
2015-Feb-16 08:33N 31°20' E 121°39'0 0.0
2015-Feb-16 07:33N 31°20' E 121°39'0 0.0
2015-Feb-16 06:33N 31°20' E 121°39'0 0.0
2015-Feb-16 05:33N 31°20' E 121°39'0 0.0
2015-Feb-16 04:33N 31°20' E 121°39'0 0.0
2015-Feb-16 03:29N 31°20' E 121°39'0 0.0
2015-Feb-16 02:32N 31°20' E 121°39'1 1.4
2015-Feb-16 01:33N 31°21' E 121°41'1010.5
2015-Feb-16 00:33N 31°16' E 121°52'1110.7
2015-Feb-15 23:34N 31°14' E 122°04'1010.3
2015-Feb-15 22:33N 31°09' E 122°14'10 9.7
2015-Feb-15 21:33N 31°07' E 122°25'6 5.7
2015-Feb-15 20:32N 31°07' E 122°32'47 3.9
2015-Feb-15 08:33N 31°10' E 123°27'  

Dump ship's entire track history